Columbus, GA (31993)

9:54 PM EDT on July 06, 2015 (GMT -0400)
Hilton Heights- Lynda Lane | | Change Station
CLOSE
Current Station
Personal Weather Station
Location: Columbus, GA
Elevation: 387 ft
Nearby Weather Stations

Elev 387 ft 32.49 °N, 84.95 °W | Updated 4 seconds ago

Clear
Clear
77.7 °F
Feels Like 80 °F
N
0.0
Wind Variable Wind from ENE
Gusts 0.0 mph

Today
High -- | Low -- °F
--% Chance of Precip.
Yesterday
High -- | Low -- °F
Precip. -- in
6:38 AM 8:50 PM
Waning Gibbous, 70% visible
Pressure 30.09 in
Visibility 10.0 miles
Clouds Clear
Heat Index 80 °F
Dew Point 74 °F
Humidity 87%
Rainfall 0.00 in
Snow Depth Not available.
UV 0.0 out of 12
Pollen 3.00 out of 12
Air Quality Not available.
Flu Activity Not available.
METAR KCSG 070151Z AUTO 00000KT 10SM CLR 26/21 A3010 RMK AO2 SLP188 T02560211

More Conditions Fewer Conditions

Pressure 30.09 in
Visibility 10.0 miles
Clouds Clear
Heat Index 80 °F
Dew Point 74 °F
Humidity 87%
Rainfall 0.00 in
Snow Depth Not available.
UV 0.0 out of 12
Pollen 3.00 out of 12
Air Quality Not available.
Flu Activity Not available.
METAR KCSG 070151Z AUTO 00000KT 10SM CLR 26/21 A3010 RMK AO2 SLP188 T02560211

More Conditions Fewer Conditions

10-Day Weather Forecast

×

Almanac

Astronomy

Jul. 06, 2015 Rise Set
Actual Time
Civil Twilight
Nautical Twilight
Astronomical Twilight
Moon
Length of Visible Light
Length of Day
Tomorrow will be .
, % of the Moon is Illuminated

Today's Extremes

State Highs State Lows

Community

WunderPhotos

Upload Photos

1,835,692 photos uploaded!

WunderBlogs® & News

Nearby

Air Quality

  Air Quality AQ Index Pollutant
Not available.

Snow Depth

Station Depth Elevation

Earthquake Activity

City Distance Mag. Time & Date
Minimum magnitude displayed is 2.5.

Coastal Water Temperatures

Place Temperature

Stations

Nearby Weather Stations

Station Location Temp. Windchill Dew Point Humidity Wind Precip. Elev Updated Type